createdAt,value
2022-12-29T00:01:57.669Z,4.50
2022-12-29T00:04:24.225Z,4.22
2022-12-29T00:06:50.810Z,5.00
2022-12-29T00:09:17.661Z,4.72
2022-12-29T00:11:44.678Z,4.30
2022-12-29T00:14:30.326Z,4.75
2022-12-29T00:16:57.283Z,4.38
2022-12-29T00:19:43.080Z,4.72
2022-12-29T00:22:30.125Z,5.03
2022-12-29T00:25:02.803Z,4.25
2022-12-29T00:27:48.584Z,5.18
2022-12-29T00:30:39.098Z,4.50
2022-12-29T00:33:38.309Z,4.15
2022-12-29T00:36:18.106Z,4.53
2022-12-29T00:39:10.532Z,4.90
2022-12-29T00:44:22.054Z,4.30
2022-12-29T00:46:48.698Z,4.43
2022-12-29T00:49:33.798Z,5.22
2022-12-29T00:52:11.533Z,4.25
2022-12-29T00:54:39.629Z,4.40
2022-12-29T00:57:08.169Z,4.30
2022-12-29T00:59:39.207Z,4.30
2022-12-29T01:02:05.804Z,4.33
2022-12-29T01:04:32.919Z,4.43
2022-12-29T01:06:59.663Z,4.68
2022-12-29T01:09:44.486Z,4.18
2022-12-29T01:12:11.427Z,5.70
2022-12-29T01:14:38.692Z,4.88
2022-12-29T01:17:05.622Z,4.72
2022-12-29T01:19:32.199Z,4.68
2022-12-29T01:21:58.903Z,4.90
2022-12-29T01:24:27.096Z,4.90
2022-12-29T01:26:55.459Z,5.43
2022-12-29T01:29:22.439Z,4.65
2022-12-29T01:31:50.704Z,5.30
2022-12-29T01:34:17.823Z,4.53
2022-12-29T01:36:44.859Z,4.90
2022-12-29T01:39:11.503Z,4.80
2022-12-29T01:41:38.169Z,4.43
2022-12-29T01:44:43.245Z,4.75
2022-12-29T01:47:09.860Z,4.30
2022-12-29T01:49:36.467Z,4.50
2022-12-29T01:52:06.493Z,5.00
2022-12-29T01:54:43.719Z,4.50
2022-12-29T01:57:13.938Z,4.10
2022-12-29T01:59:45.041Z,4.50
2022-12-29T02:02:11.976Z,4.60
2022-12-29T02:04:41.717Z,4.15
2022-12-29T02:07:21.303Z,4.32
2022-12-29T02:09:49.589Z,4.80
2022-12-29T02:12:17.391Z,4.25
2022-12-29T02:14:45.069Z,4.50
2022-12-29T02:17:33.354Z,4.50
2022-12-29T02:20:11.998Z,4.28
2022-12-29T02:22:41.172Z,4.25
2022-12-29T02:25:35.084Z,4.47
2022-12-29T02:28:04.528Z,4.30
2022-12-29T02:30:49.916Z,4.80
2022-12-29T02:33:28.378Z,4.25
2022-12-29T02:36:20.943Z,3.85
2022-12-29T02:39:08.376Z,3.85
2022-12-29T02:41:41.029Z,4.00
2022-12-29T02:44:25.533Z,4.40
2022-12-29T02:47:01.751Z,4.45
2022-12-29T02:49:49.645Z,4.65
2022-12-29T02:52:23.374Z,4.32
2022-12-29T02:54:50.781Z,4.55
2022-12-29T02:57:23.327Z,4.40
2022-12-29T03:00:08.791Z,4.60
2022-12-29T03:02:57.302Z,5.25
2022-12-29T03:05:39.961Z,5.53
2022-12-29T03:08:15.675Z,4.47
2022-12-29T03:10:54.345Z,4.88
2022-12-29T03:13:48.640Z,4.25
2022-12-29T03:16:34.808Z,5.60
2022-12-29T03:19:01.419Z,4.55
2022-12-29T03:21:47.835Z,5.35
2022-12-29T03:24:14.913Z,5.03
2022-12-29T03:26:42.953Z,5.15
2022-12-29T03:29:09.976Z,4.68
2022-12-29T03:31:38.178Z,5.13
2022-12-29T03:34:06.453Z,4.47
2022-12-29T03:36:40.392Z,4.53
2022-12-29T03:39:14.258Z,4.95
2022-12-29T03:41:45.627Z,4.78
2022-12-29T03:44:13.797Z,4.80
2022-12-29T03:46:41.166Z,4.72
2022-12-29T03:49:07.894Z,4.32
2022-12-29T03:51:34.747Z,5.13
2022-12-29T03:54:01.444Z,4.50
2022-12-29T03:56:28.012Z,4.55
2022-12-29T03:58:55.058Z,4.10
2022-12-29T04:01:21.757Z,4.88
2022-12-29T04:03:48.488Z,4.47
2022-12-29T04:06:15.089Z,4.22
2022-12-29T04:08:41.706Z,4.45
2022-12-29T04:11:08.322Z,4.03
2022-12-29T04:13:34.999Z,4.45
2022-12-29T04:16:01.618Z,3.90
2022-12-29T04:18:28.137Z,4.07
2022-12-29T04:21:00.799Z,4.20
2022-12-29T04:23:28.788Z,4.20
2022-12-29T04:25:55.403Z,4.38
2022-12-29T04:28:22.031Z,4.20
2022-12-29T04:30:48.945Z,4.20
2022-12-29T04:33:15.667Z,4.50
2022-12-29T04:35:43.710Z,4.82
2022-12-29T04:38:10.481Z,4.25
2022-12-29T04:40:39.663Z,4.40
2022-12-29T04:43:06.802Z,4.25
2022-12-29T04:45:34.238Z,4.07
2022-12-29T04:48:01.186Z,4.03
2022-12-29T04:50:27.702Z,4.30
2022-12-29T04:52:54.350Z,4.30
2022-12-29T04:55:20.955Z,4.43
2022-12-29T04:57:47.507Z,4.30
2022-12-29T05:00:14.573Z,4.60
2022-12-29T05:02:41.286Z,4.50
2022-12-29T05:05:08.397Z,4.03
2022-12-29T05:07:35.093Z,3.90
2022-12-29T05:10:01.827Z,4.25
2022-12-29T05:12:32.834Z,4.05
2022-12-29T05:14:59.651Z,4.20
2022-12-29T05:17:26.363Z,4.18
2022-12-29T05:19:52.951Z,3.80
2022-12-29T05:22:19.582Z,3.53
2022-12-29T05:24:46.160Z,4.47
2022-12-29T05:27:12.693Z,3.83
2022-12-29T05:29:39.247Z,3.80
2022-12-29T05:32:06.052Z,4.38
2022-12-29T05:34:32.575Z,3.72
2022-12-29T05:36:59.678Z,3.70
2022-12-29T05:39:26.295Z,3.92
2022-12-29T05:41:52.846Z,3.80
2022-12-29T05:44:19.498Z,4.43
2022-12-29T05:46:46.121Z,4.20
2022-12-29T05:49:12.797Z,4.28
2022-12-29T05:51:39.390Z,4.15
2022-12-29T05:54:06.022Z,3.72
2022-12-29T05:56:32.550Z,3.95
2022-12-29T05:59:00.138Z,3.80
2022-12-29T06:01:26.709Z,4.40
2022-12-29T06:03:53.392Z,3.70
2022-12-29T06:06:20.110Z,3.65
2022-12-29T06:08:46.626Z,3.60
2022-12-29T06:11:13.254Z,3.63
2022-12-29T06:13:39.873Z,3.85
2022-12-29T06:16:07.037Z,3.83
2022-12-29T06:18:33.694Z,3.70
2022-12-29T06:21:02.119Z,3.75
2022-12-29T06:23:28.843Z,3.40
2022-12-29T06:25:55.888Z,3.33
2022-12-29T06:28:22.475Z,3.67
2022-12-29T06:30:50.916Z,4.05
2022-12-29T06:33:17.597Z,3.78
2022-12-29T06:35:46.761Z,4.05
2022-12-29T06:38:13.894Z,3.92
2022-12-29T06:40:42.279Z,4.30
2022-12-29T06:43:08.878Z,3.90
2022-12-29T06:45:35.510Z,3.72
2022-12-29T06:48:02.106Z,3.50
2022-12-29T06:50:28.752Z,2.92
2022-12-29T06:52:55.298Z,3.05
2022-12-29T06:55:22.221Z,3.08
2022-12-29T06:57:48.812Z,2.95
2022-12-29T07:00:20.872Z,2.70
2022-12-29T07:02:49.400Z,3.30
2022-12-29T07:05:16.363Z,2.90
2022-12-29T07:07:42.885Z,3.45
2022-12-29T07:10:10.032Z,3.65
2022-12-29T07:12:48.518Z,3.42
2022-12-29T07:15:15.137Z,3.72
2022-12-29T07:17:43.213Z,3.80
2022-12-29T07:20:10.408Z,3.75
2022-12-29T07:22:37.246Z,3.97
2022-12-29T07:25:04.454Z,3.47
2022-12-29T07:27:31.053Z,3.40
2022-12-29T07:29:57.710Z,4.15
2022-12-29T07:32:24.265Z,3.60
2022-12-29T07:34:50.988Z,3.30
2022-12-29T07:37:17.820Z,2.95
2022-12-29T07:39:44.390Z,3.42
2022-12-29T07:42:11.045Z,3.20
2022-12-29T07:44:37.874Z,3.10
2022-12-29T07:47:04.597Z,3.03
2022-12-29T07:49:31.136Z,3.17
2022-12-29T07:51:57.681Z,2.92
2022-12-29T07:57:03.054Z,2.65
2022-12-29T07:59:29.559Z,2.70
2022-12-29T08:01:56.249Z,2.60
2022-12-29T08:04:23.060Z,2.70
2022-12-29T08:06:50.801Z,2.45
2022-12-29T08:09:22.281Z,2.45
2022-12-29T08:14:16.251Z,2.55
2022-12-29T08:16:42.787Z,2.97
2022-12-29T08:19:11.843Z,2.70
2022-12-29T08:21:39.262Z,2.90
2022-12-29T08:24:06.947Z,3.55
2022-12-29T08:26:33.705Z,3.08
2022-12-29T08:29:00.251Z,3.35
2022-12-29T08:31:26.800Z,3.00
2022-12-29T08:33:53.375Z,2.90
2022-12-29T08:36:20.107Z,3.40
2022-12-29T08:38:46.800Z,2.95
2022-12-29T08:41:13.415Z,2.63
2022-12-29T08:43:40.103Z,3.30
2022-12-29T08:46:06.658Z,2.80
2022-12-29T08:48:33.280Z,2.67
2022-12-29T08:50:59.809Z,2.70
2022-12-29T08:53:27.401Z,2.70
2022-12-29T08:56:04.104Z,2.60
2022-12-29T08:58:31.656Z,3.13
2022-12-29T09:00:58.616Z,2.60
2022-12-29T09:03:45.929Z,2.67
2022-12-29T09:06:12.415Z,2.50
2022-12-29T09:08:38.959Z,3.00
2022-12-29T09:11:22.947Z,3.28
2022-12-29T09:13:50.086Z,3.20
2022-12-29T09:16:17.472Z,3.67
2022-12-29T09:18:44.899Z,3.58
2022-12-29T09:21:12.224Z,3.60
2022-12-29T09:23:39.467Z,3.30
2022-12-29T09:26:06.141Z,3.75
2022-12-29T09:28:32.656Z,3.58
2022-12-29T09:31:00.007Z,3.55
2022-12-29T09:33:26.886Z,3.60
2022-12-29T09:35:58.206Z,3.10
2022-12-29T09:38:26.176Z,3.38
2022-12-29T09:40:56.809Z,3.28
2022-12-29T09:43:29.581Z,3.42
2022-12-29T09:46:32.761Z,3.58
2022-12-29T09:49:14.829Z,3.13
2022-12-29T09:51:44.445Z,3.00
2022-12-29T09:54:17.042Z,3.10
2022-12-29T09:56:44.008Z,3.20
2022-12-29T09:59:22.141Z,3.00
2022-12-29T10:02:04.724Z,3.97
2022-12-29T10:04:31.516Z,3.63
2022-12-29T10:07:29.156Z,4.22
2022-12-29T10:10:03.838Z,4.32
2022-12-29T10:12:48.866Z,3.90
2022-12-29T10:15:35.632Z,4.07
2022-12-29T10:18:27.955Z,3.92
2022-12-29T10:20:59.457Z,4.25
2022-12-29T10:23:34.488Z,3.90
2022-12-29T10:26:02.303Z,4.55
2022-12-29T10:28:53.870Z,4.38
2022-12-29T10:31:23.908Z,4.50
2022-12-29T10:33:59.001Z,3.92
2022-12-29T10:36:31.925Z,4.10
2022-12-29T10:39:07.696Z,4.57
2022-12-29T10:41:58.165Z,4.20
2022-12-29T10:44:29.750Z,4.28
2022-12-29T10:47:03.315Z,3.72
2022-12-29T10:49:31.275Z,4.03
2022-12-29T10:51:59.993Z,3.90
2022-12-29T10:54:45.137Z,4.10
2022-12-29T10:57:32.385Z,3.90
2022-12-29T10:59:59.543Z,4.00
2022-12-29T11:02:50.883Z,3.60
2022-12-29T11:05:26.801Z,3.63
2022-12-29T11:07:56.860Z,3.80
2022-12-29T11:10:29.380Z,3.33
2022-12-29T11:13:04.177Z,4.70
2022-12-29T11:15:41.953Z,3.90
2022-12-29T11:18:19.051Z,3.47
2022-12-29T11:20:45.671Z,3.30
2022-12-29T11:23:27.355Z,3.78
2022-12-29T11:26:18.501Z,3.30
2022-12-29T11:28:48.623Z,2.55
2022-12-29T11:31:19.151Z,3.25
2022-12-29T11:33:45.903Z,2.88
2022-12-29T11:36:18.687Z,2.80
2022-12-29T11:38:51.131Z,2.67
2022-12-29T11:41:28.951Z,2.97
2022-12-29T11:43:58.373Z,2.33
2022-12-29T11:46:34.052Z,2.72
2022-12-29T11:49:01.676Z,2.38
2022-12-29T11:51:35.072Z,2.90
2022-12-29T11:54:03.845Z,2.33
2022-12-29T11:56:42.254Z,1.95
2022-12-29T11:59:39.736Z,2.30
2022-12-29T12:02:43.625Z,2.20
2022-12-29T12:05:23.822Z,1.90
2022-12-29T12:07:56.009Z,1.77
2022-12-29T12:10:28.344Z,1.90
2022-12-29T12:13:08.063Z,2.17
2022-12-29T12:15:45.851Z,2.10
2022-12-29T12:18:20.341Z,1.70
2022-12-29T12:20:49.315Z,1.83
2022-12-29T12:23:32.283Z,1.95
2022-12-29T12:26:05.740Z,1.63
2022-12-29T12:28:49.860Z,1.95
2022-12-29T12:31:23.483Z,1.80
2022-12-29T12:33:56.332Z,1.65
2022-12-29T12:36:44.549Z,1.63
2022-12-29T12:39:27.170Z,2.08
2022-12-29T12:42:44.142Z,2.00
2022-12-29T12:45:29.293Z,2.15
2022-12-29T12:47:58.841Z,2.00
2022-12-29T12:51:04.189Z,1.85
2022-12-29T12:53:31.003Z,1.50
2022-12-29T12:55:57.475Z,1.85
2022-12-29T12:58:42.467Z,1.65
2022-12-29T13:01:15.230Z,1.80
2022-12-29T13:03:42.317Z,1.92
2022-12-29T13:06:37.861Z,1.80
2022-12-29T13:09:14.131Z,1.80
2022-12-29T13:12:02.316Z,2.00
2022-12-29T13:14:47.716Z,1.75
2022-12-29T13:17:24.352Z,1.98
2022-12-29T13:20:06.100Z,2.05
2022-12-29T13:22:40.950Z,1.67
2022-12-29T13:25:40.050Z,1.88
2022-12-29T13:28:34.669Z,1.60
2022-12-29T13:31:24.315Z,1.60
2022-12-29T13:34:09.631Z,1.77
2022-12-29T13:36:49.249Z,1.80
2022-12-29T13:39:22.059Z,1.83
2022-12-29T13:41:54.046Z,1.95
2022-12-29T13:44:43.653Z,1.83
2022-12-29T13:47:42.560Z,1.70
2022-12-29T13:50:18.124Z,1.90
2022-12-29T13:52:59.184Z,1.70
2022-12-29T13:55:47.657Z,1.50
2022-12-29T13:58:26.684Z,1.70
2022-12-29T14:01:19.192Z,1.65
2022-12-29T14:03:56.194Z,1.70
2022-12-29T14:06:24.836Z,1.65
2022-12-29T14:08:54.487Z,1.60
2022-12-29T14:11:25.852Z,1.60
2022-12-29T14:13:52.630Z,1.42
2022-12-29T14:16:27.767Z,1.50
2022-12-29T14:18:58.180Z,1.50
2022-12-29T14:21:31.115Z,1.65
2022-12-29T14:24:32.587Z,1.25
2022-12-29T14:26:59.193Z,1.42
2022-12-29T14:29:25.716Z,1.42
2022-12-29T14:31:55.630Z,1.35
2022-12-29T14:34:22.194Z,1.73
2022-12-29T14:36:58.798Z,1.45
2022-12-29T14:39:37.295Z,1.50
2022-12-29T14:42:09.890Z,1.30
2022-12-29T14:45:03.353Z,1.40
2022-12-29T14:47:36.042Z,1.10
2022-12-29T14:50:23.236Z,1.33
2022-12-29T14:53:02.544Z,1.42
2022-12-29T14:55:29.891Z,1.35
2022-12-29T14:58:02.222Z,1.55
2022-12-29T15:00:34.656Z,1.67
2022-12-29T15:03:06.787Z,1.50
2022-12-29T15:05:42.616Z,1.73
2022-12-29T15:08:09.974Z,1.40
2022-12-29T15:10:59.558Z,1.40
2022-12-29T15:13:35.476Z,1.70
2022-12-29T15:16:02.092Z,1.75
2022-12-29T15:18:34.241Z,1.67
2022-12-29T15:21:02.866Z,1.70
2022-12-29T15:23:31.096Z,1.50
2022-12-29T15:26:01.694Z,1.55
2022-12-29T15:28:29.859Z,1.50
2022-12-29T15:31:02.859Z,1.55
2022-12-29T15:33:29.511Z,1.60
2022-12-29T15:35:58.433Z,1.60
2022-12-29T15:38:34.536Z,1.48
2022-12-29T15:41:08.866Z,1.50
2022-12-29T15:43:50.773Z,1.40
2022-12-29T15:46:17.636Z,1.50
2022-12-29T15:48:44.304Z,1.77
2022-12-29T15:51:20.061Z,1.40
2022-12-29T15:53:51.808Z,1.67
2022-12-29T15:58:51.408Z,1.40
2022-12-29T16:01:37.180Z,1.67
2022-12-29T16:04:08.047Z,1.60
2022-12-29T16:06:35.829Z,1.67
2022-12-29T16:09:03.532Z,1.75
2022-12-29T16:11:40.292Z,1.33
2022-12-29T16:14:32.874Z,1.63
2022-12-29T16:17:01.941Z,1.38
2022-12-29T16:19:30.836Z,1.70
2022-12-29T16:21:59.290Z,1.70
2022-12-29T16:24:27.796Z,1.42
2022-12-29T16:27:07.323Z,1.60
2022-12-29T16:29:34.485Z,1.30
2022-12-29T16:32:03.638Z,1.88
2022-12-29T16:34:32.831Z,1.92
2022-12-29T16:37:01.762Z,1.52
2022-12-29T16:39:35.307Z,1.67
2022-12-29T16:42:02.119Z,2.00
2022-12-29T16:44:32.172Z,1.33
2022-12-29T16:47:13.056Z,2.00
2022-12-29T16:49:41.533Z,1.73
2022-12-29T16:52:19.966Z,1.50
2022-12-29T16:54:55.918Z,1.80
2022-12-29T16:57:28.123Z,1.80
2022-12-29T16:59:57.647Z,2.30
2022-12-29T17:02:27.254Z,2.60
2022-12-29T17:04:54.015Z,2.72
2022-12-29T17:07:28.014Z,2.67
2022-12-29T17:09:55.126Z,2.80
2022-12-29T17:12:27.532Z,3.03
2022-12-29T17:14:59.025Z,2.90
2022-12-29T17:17:41.921Z,2.55
2022-12-29T17:20:15.887Z,2.95
2022-12-29T17:22:42.401Z,3.72
2022-12-29T17:25:12.812Z,3.65
2022-12-29T17:27:44.812Z,3.50
2022-12-29T17:30:16.928Z,3.00
2022-12-29T17:32:48.680Z,3.20
2022-12-29T17:35:17.093Z,3.33
2022-12-29T17:37:44.209Z,3.50
2022-12-29T17:40:22.103Z,3.65
2022-12-29T17:42:49.805Z,3.55
2022-12-29T17:45:21.188Z,3.92
2022-12-29T17:47:48.471Z,3.92
2022-12-29T17:50:17.636Z,3.53
2022-12-29T17:52:46.950Z,3.80
2022-12-29T17:55:16.939Z,3.55
2022-12-29T17:57:44.012Z,3.28
2022-12-29T18:00:31.063Z,3.92
2022-12-29T18:02:59.166Z,3.60
2022-12-29T18:05:28.268Z,3.58
2022-12-29T18:07:57.239Z,3.60
2022-12-29T18:10:25.608Z,3.63
2022-12-29T18:12:53.617Z,3.30
2022-12-29T18:15:31.615Z,3.30
2022-12-29T18:18:12.770Z,3.50
2022-12-29T18:20:40.637Z,3.20
2022-12-29T18:23:15.642Z,3.08
2022-12-29T18:26:01.129Z,3.33
2022-12-29T18:28:28.337Z,3.20
2022-12-29T18:30:56.701Z,3.42
2022-12-29T18:33:26.610Z,3.28
2022-12-29T18:35:56.168Z,3.40
2022-12-29T18:38:22.722Z,3.58
2022-12-29T18:40:49.468Z,3.70
2022-12-29T18:43:18.203Z,3.58
2022-12-29T18:45:48.337Z,3.67
2022-12-29T18:48:16.749Z,3.60
2022-12-29T18:50:43.574Z,3.92
2022-12-29T18:53:18.509Z,3.90
2022-12-29T18:55:45.052Z,3.72
2022-12-29T18:58:11.988Z,3.35
2022-12-29T19:00:39.345Z,3.28
2022-12-29T19:03:06.212Z,3.75
2022-12-29T19:05:37.746Z,3.80
2022-12-29T19:08:04.798Z,4.10
2022-12-29T19:10:31.795Z,4.47
2022-12-29T19:12:58.396Z,4.05
2022-12-29T19:15:28.900Z,3.72
2022-12-29T19:18:41.142Z,3.80
2022-12-29T19:20:45.043Z,4.07
2022-12-29T19:23:14.735Z,3.83
